createdAt,value
2023-12-22T00:01:41.457Z,96860.11
2023-12-22T00:06:50.299Z,96850.98
2023-12-22T00:11:57.289Z,96851.93
2023-12-22T00:17:04.292Z,96848.63
2023-12-22T00:22:11.478Z,96846.24
2023-12-22T00:27:18.573Z,96837.73
2023-12-22T00:32:25.557Z,96837.84
2023-12-22T00:37:32.563Z,96832.88
2023-12-22T00:42:39.639Z,96856.45
2023-12-22T00:47:47.030Z,96895.87
2023-12-22T00:52:54.317Z,96923.95
2023-12-22T00:58:01.392Z,96917.39
2023-12-22T01:03:08.656Z,96927.95
2023-12-22T01:08:16.161Z,96941.95
2023-12-22T01:13:23.291Z,96939.70
2023-12-22T01:18:31.505Z,96930.90
2023-12-22T01:23:38.639Z,96927.54
2023-12-22T01:28:45.645Z,96922.82
2023-12-22T01:33:52.773Z,96934.27
2023-12-22T01:39:00.089Z,96946.95
2023-12-22T01:44:07.243Z,96939.38
2023-12-22T01:49:14.752Z,96939.55
2023-12-22T01:54:21.964Z,96951.52
2023-12-22T01:59:29.636Z,96956.08
2023-12-22T02:04:36.865Z,96957.59
2023-12-22T02:09:43.885Z,96962.25
2023-12-22T02:14:51.369Z,96965.09
2023-12-22T02:19:59.386Z,96972.88
2023-12-22T02:25:05.383Z,96967.14
2023-12-22T02:30:18.131Z,96962.03
2023-12-22T02:35:28.802Z,96973.93
2023-12-22T02:40:37.190Z,96977.02
2023-12-22T02:45:44.409Z,96970.55
2023-12-22T02:50:51.467Z,96974.81
2023-12-22T02:55:58.551Z,96987.02
2023-12-22T03:01:05.785Z,96983.77
2023-12-22T03:06:12.920Z,96981.05
2023-12-22T03:11:20.143Z,96990.23
2023-12-22T03:16:27.338Z,96976.42
2023-12-22T03:21:34.328Z,96980.49
2023-12-22T03:26:41.865Z,96975.53
2023-12-22T03:31:49.684Z,96978.81
2023-12-22T03:36:56.735Z,96987.09
2023-12-22T03:42:03.821Z,96998.78
2023-12-22T03:47:10.899Z,96993.98
2023-12-22T03:52:17.923Z,97005.29
2023-12-22T03:57:24.992Z,97005.14
2023-12-22T04:02:32.037Z,97008.38
2023-12-22T04:07:39.449Z,97020.41
2023-12-22T04:12:46.566Z,97026.04
2023-12-22T04:17:53.523Z,97034.50
2023-12-22T04:23:01.174Z,97031.57
2023-12-22T04:28:08.550Z,97029.58
2023-12-22T04:33:15.681Z,97035.70
2023-12-22T04:38:23.025Z,97033.13
2023-12-22T04:43:30.171Z,97029.21
2023-12-22T04:48:37.302Z,97032.46
2023-12-22T04:53:44.444Z,97043.86
2023-12-22T04:58:51.530Z,97043.87
2023-12-22T05:03:58.644Z,97052.78
2023-12-22T05:09:05.783Z,97046.00
2023-12-22T05:14:14.471Z,97054.20
2023-12-22T05:19:21.537Z,97050.18
2023-12-22T05:24:28.684Z,97047.86
2023-12-22T05:29:35.728Z,97046.12
2023-12-22T05:34:42.845Z,97051.13
2023-12-22T05:39:49.919Z,97042.69
2023-12-22T05:44:56.995Z,97049.57
2023-12-22T05:50:04.326Z,97057.42
2023-12-22T05:55:12.167Z,97058.45
2023-12-22T06:00:20.139Z,97063.79
2023-12-22T06:05:26.340Z,97063.81
2023-12-22T06:10:33.511Z,97077.41
2023-12-22T06:15:40.650Z,97068.59
2023-12-22T06:20:47.737Z,97074.74
2023-12-22T06:25:54.750Z,97073.22
2023-12-22T06:31:01.826Z,97077.24
2023-12-22T06:36:09.787Z,97091.92
2023-12-22T06:41:27.797Z,97086.15
2023-12-22T06:46:35.690Z,97100.05
2023-12-22T06:51:42.776Z,97122.77
2023-12-22T06:56:49.803Z,97128.27
2023-12-22T07:02:05.918Z,97112.34
2023-12-22T07:07:20.346Z,97105.74
2023-12-22T07:12:27.369Z,97111.59
2023-12-22T07:17:34.402Z,97107.67
2023-12-22T07:22:41.715Z,97087.11
2023-12-22T07:27:49.124Z,97073.27
2023-12-22T07:32:56.276Z,97069.61
2023-12-22T07:38:04.054Z,97086.97
2023-12-22T07:43:11.999Z,97102.61
2023-12-22T07:48:19.278Z,97099.03
2023-12-22T07:53:26.594Z,97094.95
2023-12-22T07:58:34.174Z,97100.38
2023-12-22T08:03:41.323Z,97098.27
2023-12-22T08:08:48.414Z,97091.56
2023-12-22T08:13:55.955Z,97106.57
2023-12-22T08:19:03.364Z,97102.35
2023-12-22T08:24:14.878Z,97100.68
2023-12-22T08:29:26.330Z,97093.30
2023-12-22T08:34:34.198Z,97105.55
2023-12-22T08:39:39.944Z,97114.40
2023-12-22T08:44:46.973Z,97118.23
2023-12-22T08:49:55.152Z,97108.66
2023-12-22T08:55:02.228Z,97094.33
2023-12-22T09:00:11.291Z,97088.55
2023-12-22T09:05:21.671Z,97096.33
2023-12-22T09:10:29.325Z,97094.01
2023-12-22T09:15:37.461Z,97097.52
2023-12-22T09:20:43.122Z,97111.99
2023-12-22T09:25:50.563Z,97098.05
2023-12-22T09:30:57.625Z,97090.11
2023-12-22T09:36:04.828Z,97080.61
2023-12-22T09:41:12.871Z,97080.02
2023-12-22T09:46:19.956Z,97084.88
2023-12-22T09:51:27.148Z,97084.84
2023-12-22T09:56:35.164Z,97081.77
2023-12-22T10:01:45.415Z,97083.64
2023-12-22T10:06:54.084Z,97087.00
2023-12-22T10:12:03.781Z,97082.80
2023-12-22T10:17:11.119Z,97089.08
2023-12-22T10:22:39.397Z,97092.70
2023-12-22T10:29:00.638Z,97085.45
2023-12-22T10:34:36.646Z,97083.19
2023-12-22T10:39:44.744Z,97076.14
2023-12-22T10:44:53.313Z,97076.93
2023-12-22T10:50:04.112Z,97078.59
2023-12-22T10:55:12.431Z,97073.25
2023-12-22T11:00:22.677Z,97061.23
2023-12-22T11:05:31.994Z,97058.24
2023-12-22T11:10:44.746Z,97057.88
2023-12-22T11:15:54.264Z,97046.06
2023-12-22T11:21:02.444Z,97042.98
2023-12-22T11:26:12.585Z,97039.18
2023-12-22T11:31:19.962Z,97045.92
2023-12-22T11:36:27.179Z,97040.31
2023-12-22T11:41:38.352Z,97032.41
2023-12-22T11:46:45.709Z,97043.25
2023-12-22T11:51:53.180Z,97047.58
2023-12-22T11:57:04.270Z,97064.76
2023-12-22T12:02:14.959Z,97058.80
2023-12-22T12:07:47.013Z,97063.41
2023-12-22T12:13:08.568Z,97066.66
2023-12-22T12:18:17.332Z,97076.11
2023-12-22T12:23:25.697Z,97077.19
2023-12-22T12:28:35.141Z,97067.52
2023-12-22T12:33:44.171Z,97075.02
2023-12-22T12:39:01.252Z,97065.37
2023-12-22T12:44:09.566Z,97072.52
2023-12-22T12:49:17.166Z,97068.16
2023-12-22T12:54:24.786Z,97063.63
2023-12-22T12:59:31.863Z,97065.30
2023-12-22T13:04:42.216Z,97066.51
2023-12-22T13:09:49.513Z,97074.27
2023-12-22T13:14:56.828Z,97080.77
2023-12-22T13:20:04.815Z,97088.41
2023-12-22T13:25:12.848Z,97098.34
2023-12-22T13:30:33.924Z,97106.61
2023-12-22T13:35:43.194Z,97111.19
2023-12-22T13:40:51.383Z,97120.19
2023-12-22T13:45:59.308Z,97134.29
2023-12-22T13:51:06.812Z,97144.36
2023-12-22T13:56:14.137Z,97152.48
2023-12-22T14:01:21.523Z,97157.05
2023-12-22T14:06:30.323Z,97176.02
2023-12-22T14:11:40.647Z,97182.64
2023-12-22T14:16:51.853Z,97189.59
2023-12-22T14:21:59.013Z,97191.11
2023-12-22T14:27:06.639Z,97206.55
2023-12-22T14:32:16.104Z,97208.92
2023-12-22T14:37:23.645Z,97217.73
2023-12-22T14:42:30.725Z,97236.88
2023-12-22T14:47:37.916Z,97255.69
2023-12-22T14:52:46.115Z,97259.91
2023-12-22T14:57:53.385Z,97256.05
2023-12-22T15:03:01.270Z,97268.43
2023-12-22T15:08:09.468Z,97272.46
2023-12-22T15:13:17.019Z,97276.80
2023-12-22T15:18:24.271Z,97281.33
2023-12-22T15:29:06.150Z,97292.09
2023-12-22T15:34:14.125Z,97303.86
2023-12-22T15:39:22.161Z,97312.84
2023-12-22T15:44:30.809Z,97318.69
2023-12-22T15:49:39.428Z,97327.27
2023-12-22T15:54:45.219Z,97338.34
2023-12-22T15:59:52.523Z,97343.41
2023-12-22T16:04:59.669Z,97356.45
2023-12-22T16:10:09.406Z,97359.67
2023-12-22T16:15:16.815Z,97362.41
2023-12-22T16:20:24.078Z,97378.91
2023-12-22T16:25:33.692Z,97391.89
2023-12-22T16:30:42.082Z,97402.36
2023-12-22T16:36:12.822Z,97401.27
2023-12-22T16:41:40.296Z,97404.41
2023-12-22T16:46:47.736Z,97416.84
2023-12-22T16:51:55.052Z,97420.81
2023-12-22T16:57:02.434Z,97424.79
2023-12-22T17:02:26.870Z,97435.16
2023-12-22T17:07:39.318Z,97447.70
2023-12-22T17:13:06.470Z,97449.19
2023-12-22T17:18:15.729Z,97467.45
2023-12-22T17:23:22.944Z,97472.19
2023-12-22T17:28:33.161Z,97486.70
2023-12-22T17:33:40.828Z,97490.89
2023-12-22T17:38:55.161Z,97501.60
2023-12-22T17:44:02.395Z,97518.46
2023-12-22T17:49:09.804Z,97516.99
2023-12-22T17:54:17.318Z,97520.46
2023-12-22T17:59:24.983Z,97521.68
2023-12-22T18:04:32.280Z,97525.32
2023-12-22T18:09:42.889Z,97528.02
2023-12-22T18:14:50.982Z,97530.48
2023-12-22T18:19:56.602Z,97531.48
2023-12-22T18:25:03.971Z,97538.88
2023-12-22T18:30:13.634Z,97556.91
2023-12-22T18:35:22.341Z,97563.45
2023-12-22T18:40:35.102Z,97575.05
2023-12-22T18:45:44.607Z,97576.83
2023-12-22T18:50:54.501Z,97575.27
2023-12-22T18:56:03.445Z,97587.39
2023-12-22T19:01:17.405Z,97598.80
2023-12-22T19:06:33.523Z,97593.48
2023-12-22T19:11:45.278Z,97591.88
2023-12-22T19:17:00.519Z,97599.89
2023-12-22T19:22:09.054Z,97602.53
2023-12-22T19:27:17.128Z,97608.60
2023-12-22T19:32:23.329Z,97608.02
2023-12-22T19:37:30.889Z,97614.42
2023-12-22T19:42:39.193Z,97614.88
2023-12-22T19:47:47.264Z,97614.16
2023-12-22T19:52:55.237Z,97615.22
2023-12-22T19:58:03.210Z,97616.17
2023-12-22T20:03:09.495Z,97618.24
2023-12-22T20:08:16.766Z,97615.38
2023-12-22T20:13:24.173Z,97613.73
2023-12-22T20:18:31.770Z,97609.92
2023-12-22T20:23:39.545Z,97619.11
2023-12-22T20:28:47.153Z,97625.96
2023-12-22T20:33:54.630Z,97639.49
2023-12-22T20:39:02.488Z,97631.11
2023-12-22T20:44:10.247Z,97641.70
2023-12-22T20:49:19.360Z,97653.00
2023-12-22T20:54:29.336Z,97661.48
2023-12-22T20:59:36.858Z,97662.52
2023-12-22T21:04:44.133Z,97665.94
2023-12-22T21:09:51.572Z,97668.79
2023-12-22T21:14:58.757Z,97670.41
2023-12-22T21:20:06.933Z,97672.41
2023-12-22T21:25:14.390Z,97675.52
2023-12-22T21:30:20.644Z,97677.39
2023-12-22T21:35:27.837Z,97682.63
2023-12-22T21:40:35.648Z,97689.33
2023-12-22T21:45:45.618Z,97682.40
2023-12-22T21:50:52.841Z,97691.98
2023-12-22T21:56:03.434Z,97696.72
2023-12-22T22:01:10.650Z,97702.05
2023-12-22T22:06:17.909Z,97699.96
2023-12-22T22:11:25.334Z,97702.66
2023-12-22T22:16:35.047Z,97697.14
2023-12-22T22:21:42.837Z,97693.72
2023-12-22T22:26:49.866Z,97702.56
2023-12-22T22:31:57.007Z,97717.03
2023-12-22T22:37:04.335Z,97722.52
2023-12-22T22:42:11.374Z,97729.38
2023-12-22T22:47:18.395Z,97730.73
2023-12-22T22:52:26.863Z,97724.70
2023-12-22T22:57:33.956Z,97732.55
2023-12-22T23:02:45.109Z,97733.33
2023-12-22T23:07:52.828Z,97736.08
2023-12-22T23:12:58.682Z,97740.70
2023-12-22T23:18:06.336Z,97747.25
2023-12-22T23:23:16.288Z,97749.70
2023-12-22T23:28:23.431Z,97762.68
2023-12-22T23:33:30.664Z,97774.34
2023-12-22T23:38:40.946Z,97776.03
2023-12-22T23:43:48.034Z,97781.91
2023-12-22T23:48:55.238Z,97793.56
2023-12-22T23:54:02.267Z,97804.89
2023-12-22T23:59:09.368Z,97802.17
